Time;durP1;ratioP1;P1;durP2;ratioP2;P2;SDS_P1;SDS_P2;PMS_P1;PMS_P2;Temp;Humidity;BMP_temperature;BMP_pressure;BME280_temperature;BME280_humidity;BME280_pressure;Samples;Min_cycle;Max_cycle;Signal;HPM_P1;HPM_P2
2023/06/22 00:19:53;;;;;;;12.40;11.30;;;;;;;20.25;89.00;101176.16;5386932;23;20060;-83
2023/06/22 00:22:27;;;;;;;12.35;11.25;;;;;;;20.23;88.87;101175.34;4868589;29;20052;-83
2023/06/22 00:24:55;;;;;;;13.93;12.55;;;;;;;20.20;88.76;101180.81;4882629;29;20975;-83
2023/06/22 00:27:22;;;;;;;12.30;11.20;;;;;;;20.17;88.66;101189.75;4884399;29;20413;-83
2023/06/22 00:29:48;;;;;;;16.48;14.52;;;;;;;20.15;88.53;101186.31;4861980;29;20523;-82
2023/06/22 00:32:15;;;;;;;15.30;13.70;;;;;;;20.09;88.51;101194.53;4870413;29;20521;-85
2023/06/22 00:34:42;;;;;;;15.60;13.98;;;;;;;20.07;88.60;101198.19;4861902;29;20111;-84
2023/06/22 00:37:08;;;;;;;16.17;14.57;;;;;;;20.02;88.81;101203.66;4871296;29;20049;-84
2023/06/22 00:39:35;;;;;;;18.70;15.93;;;;;;;19.95;88.88;101196.88;4858984;29;20499;-84
2023/06/22 00:42:02;;;;;;;16.23;13.30;;;;;;;19.91;88.63;101197.94;4860006;29;20045;-83
2023/06/22 00:44:28;;;;;;;16.98;15.18;;;;;;;19.87;89.19;101193.63;4861535;29;20045;-83
2023/06/22 00:46:55;;;;;;;15.57;13.95;;;;;;;19.83;88.89;101184.94;4839474;29;20075;-83
2023/06/22 00:49:22;;;;;;;15.43;13.65;;;;;;;19.79;88.72;101178.84;4855697;29;20160;-84
2023/06/22 00:51:48;;;;;;;15.93;14.38;;;;;;;19.76;88.93;101170.97;4853346;29;20396;-84
2023/06/22 00:54:15;;;;;;;15.85;14.27;;;;;;;19.74;88.51;101170.19;4848502;29;20470;-84
2023/06/22 00:56:42;;;;;;;16.25;14.75;;;;;;;19.73;88.32;101163.13;4856508;29;20053;-84
2023/06/22 00:59:12;;;;;;;16.30;14.10;;;;;;;19.72;87.85;101160.56;4845967;29;20524;-84
2023/06/22 01:01:41;;;;;;;14.13;12.82;;;;;;;19.69;87.38;101158.03;4874001;29;20029;-84
2023/06/22 01:04:07;;;;;;;14.73;13.32;;;;;;;19.65;87.53;101149.31;4869430;29;20056;-84
2023/06/22 01:06:45;;;;;;;18.35;13.85;;;;;;;19.64;87.32;101148.41;4843602;29;20049;-84
2023/06/22 01:09:16;;;;;;;14.18;12.88;;;;;;;19.58;87.20;101151.34;4840109;29;20061;-84
2023/06/22 01:11:54;;;;;;;14.23;12.60;;;;;;;19.55;87.05;101148.78;4859774;29;21628;-84
2023/06/22 01:14:29;;;;;;;13.50;12.30;;;;;;;19.50;87.09;101145.44;4863081;29;20428;-84
2023/06/22 01:16:57;;;;;;;13.63;12.32;;;;;;;19.47;87.08;101137.59;4859442;29;20320;-84
2023/06/22 01:19:55;;;;;;;14.20;12.80;;;;;;;19.44;87.51;101137.72;4857965;29;20061;-82
2023/06/22 01:22:31;;;;;;;13.23;11.95;;;;;;;19.39;87.83;101134.38;4882921;29;20041;-83
2023/06/22 01:25:22;;;;;;;13.27;12.00;;;;;;;19.36;88.07;101130.06;4858746;29;20041;-83
2023/06/22 01:28:07;;;;;;;12.80;11.65;;;;;;;19.34;87.90;101116.81;4845481;29;20114;-84
2023/06/22 01:30:34;;;;;;;13.45;11.52;;;;;;;19.36;87.68;101115.91;4847204;29;20049;-83
2023/06/22 01:33:06;;;;;;;12.80;11.48;;;;;;;19.34;87.98;101123.94;4875599;29;20056;-83
2023/06/22 01:35:33;;;;;;;13.57;12.07;;;;;;;19.35;87.60;101128.31;4870144;29;20515;-83
2023/06/22 01:38:00;;;;;;;11.93;10.90;;;;;;;19.37;87.19;101131.75;4842912;29;20053;-84
2023/06/22 01:40:27;;;;;;;12.75;11.55;;;;;;;19.35;87.32;101141.59;4845228;29;20057;-83
2023/06/22 01:42:54;;;;;;;13.02;11.73;;;;;;;19.33;87.60;101139.00;4860958;29;20599;-82
2023/06/22 01:45:21;;;;;;;12.57;11.30;;;;;;;19.33;87.33;101131.03;4861068;29;20049;-82
2023/06/22 01:47:48;;;;;;;13.30;12.00;;;;;;;19.33;87.26;101127.50;4861156;29;20053;-82
2023/06/22 01:50:15;;;;;;;11.68;10.52;;;;;;;19.33;86.88;101130.16;4856475;29;20147;-83
2023/06/22 01:52:41;;;;;;;11.75;10.65;;;;;;;19.33;86.97;101130.16;4850958;29;20052;-82
2023/06/22 01:55:09;;;;;;;13.10;11.90;;;;;;;19.30;87.27;101127.63;4859130;29;20052;-83
2023/06/22 01:57:36;;;;;;;12.68;11.50;;;;;;;19.31;87.12;101124.06;4847088;29;20054;-82
2023/06/22 02:00:20;;;;;;;14.40;11.75;;;;;;;19.28;87.06;101132.13;4870328;29;20057;-83
2023/06/22 02:03:02;;;;;;;13.07;11.85;;;;;;;19.27;86.92;101130.41;4863731;29;20487;-83
2023/06/22 02:05:42;;;;;;;11.98;10.85;;;;;;;19.25;86.61;101127.78;4837035;29;20520;-84
2023/06/22 02:08:16;;;;;;;12.27;10.82;;;;;;;19.20;86.90;101137.72;4872433;29;20440;-83
2023/06/22 02:10:44;;;;;;;11.48;10.43;;;;;;;19.16;86.84;101141.41;4863947;29;20069;-83
2023/06/22 02:13:12;;;;;;;11.30;10.18;;;;;;;19.13;86.96;101144.19;4864501;29;20056;-83
2023/06/22 02:15:39;;;;;;;12.73;10.93;;;;;;;19.10;86.98;101142.50;4867723;29;20060;-83
2023/06/22 02:18:06;;;;;;;11.38;10.27;;;;;;;19.08;87.23;101146.16;4871329;29;20060;-83
2023/06/22 02:20:32;;;;;;;10.48;9.48;;;;;;;19.05;87.24;101143.63;4855705;29;20065;-82
2023/06/22 02:22:59;;;;;;;12.68;9.75;;;;;;;19.04;87.33;101144.53;4838443;29;20068;-82
2023/06/22 02:25:26;;;;;;;11.40;10.23;;;;;;;19.00;87.30;101149.06;4846757;29;20066;-83
2023/06/22 02:27:52;;;;;;;10.55;9.68;;;;;;;18.93;87.98;101142.25;4854946;29;20057;-83
2023/06/22 02:30:19;;;;;;;11.77;10.25;;;;;;;18.91;87.87;101141.44;4860820;29;20051;-82
2023/06/22 02:32:45;;;;;;;11.57;10.07;;;;;;;18.86;88.34;101141.56;4855333;29;20042;-84
2023/06/22 02:35:12;;;;;;;12.63;11.30;;;;;;;18.84;88.54;101136.31;4851786;29;20060;-83
2023/06/22 02:37:41;;;;;;;10.88;9.75;;;;;;;18.83;88.52;101152.31;4857309;29;20046;-82
2023/06/22 02:40:10;;;;;;;14.95;10.48;;;;;;;18.81;88.83;101154.13;4841645;29;20073;-83
2023/06/22 02:42:40;;;;;;;11.40;10.27;;;;;;;18.77;89.01;101163.13;4839425;29;20038;-83
2023/06/22 02:45:07;;;;;;;11.95;10.73;;;;;;;18.73;89.47;101158.84;4853691;29;20058;-83
2023/06/22 02:47:33;;;;;;;11.15;10.10;;;;;;;18.71;89.45;101168.63;4869223;29;20060;-83
2023/06/22 02:50:00;;;;;;;11.38;10.15;;;;;;;18.67;89.75;101173.19;4855078;29;20462;-83
2023/06/22 02:52:26;;;;;;;10.63;9.63;;;;;;;18.67;89.85;101183.81;4837039;29;20565;-83
2023/06/22 02:54:53;;;;;;;11.30;10.15;;;;;;;18.64;90.02;101178.59;4857419;29;20097;-83
2023/06/22 02:57:19;;;;;;;10.57;9.45;;;;;;;18.62;90.32;101185.75;4857897;29;20062;-83
2023/06/22 02:59:46;;;;;;;11.65;10.55;;;;;;;18.59;90.74;101186.72;4855665;29;20557;-83
2023/06/22 03:02:13;;;;;;;11.15;10.05;;;;;;;18.54;91.40;101185.13;4861343;29;20113;-83
2023/06/22 03:04:39;;;;;;;11.57;10.48;;;;;;;18.52;91.36;101186.06;4855736;29;20068;-82
2023/06/22 03:07:06;;;;;;;11.77;10.30;;;;;;;18.54;91.10;101187.78;4837185;29;20789;-82
2023/06/22 03:09:32;;;;;;;11.77;10.60;;;;;;;18.51;91.41;101188.75;4840956;29;20369;-83
2023/06/22 03:11:59;;;;;;;12.05;10.30;;;;;;;18.50;91.97;101194.97;4842025;29;20054;-83
2023/06/22 03:14:26;;;;;;;10.25;9.25;;;;;;;18.48;91.42;101189.72;4854557;29;20053;-82
2023/06/22 03:16:52;;;;;;;12.45;11.35;;;;;;;18.48;91.88;101187.06;4843733;29;20501;-83
2023/06/22 03:19:19;;;;;;;10.55;9.55;;;;;;;18.50;91.96;101187.88;4832890;29;20087;-84
2023/06/22 03:21:45;;;;;;;14.15;10.38;;;;;;;18.49;91.99;101187.94;4832447;29;20046;-83
2023/06/22 03:24:12;;;;;;;12.18;10.18;;;;;;;18.49;92.06;101186.16;4843044;29;20061;-83
2023/06/22 03:26:38;;;;;;;11.95;10.70;;;;;;;18.51;92.02;101186.97;4852767;29;20057;-82
2023/06/22 03:29:05;;;;;;;12.20;10.45;;;;;;;18.50;92.06;101185.22;4863956;29;20535;-83
2023/06/22 03:31:31;;;;;;;11.93;10.70;;;;;;;18.56;91.72;101188.59;4830553;29;20096;-83
2023/06/22 03:33:58;;;;;;;12.48;11.18;;;;;;;18.60;91.92;101192.88;4866069;29;20058;-82
2023/06/22 03:36:24;;;;;;;11.35;10.25;;;;;;;18.65;91.80;101193.59;4834553;29;20064;-82
2023/06/22 03:38:52;;;;;;;11.63;10.50;;;;;;;18.65;92.02;101191.78;4858468;29;20060;-82
2023/06/22 03:41:18;;;;;;;12.02;10.93;;;;;;;18.70;91.53;101175.72;4827562;29;20141;-83
2023/06/22 03:43:45;;;;;;;12.73;11.32;;;;;;;18.74;91.26;101173.84;4852589;29;20132;-83
2023/06/22 03:46:11;;;;;;;11.40;10.20;;;;;;;18.76;91.31;101175.53;4834343;29;20137;-82
2023/06/22 03:48:39;;;;;;;11.57;10.48;;;;;;;18.76;91.46;101180.84;4838251;29;20500;-84
2023/06/22 03:51:05;;;;;;;12.18;10.95;;;;;;;18.77;91.17;101173.72;4853255;29;20056;-82
2023/06/22 03:53:32;;;;;;;11.38;10.20;;;;;;;18.80;91.30;101177.16;4842095;29;20509;-82
2023/06/22 03:55:59;;;;;;;12.00;10.48;;;;;;;18.87;90.85;101171.63;4857250;29;20526;-82
2023/06/22 03:58:25;;;;;;;11.07;10.00;;;;;;;18.98;90.40;101177.44;4845495;29;20059;-82
2023/06/22 04:00:53;;;;;;;12.60;10.63;;;;;;;19.05;90.08;101170.16;4862250;29;20053;-84
2023/06/22 04:03:20;;;;;;;11.57;10.32;;;;;;;19.13;89.38;101168.06;4870854;29;20041;-83
2023/06/22 04:05:47;;;;;;;11.90;10.77;;;;;;;19.25;88.97;101174.72;4857811;29;20055;-83
2023/06/22 04:08:14;;;;;;;11.35;9.38;;;;;;;19.32;88.36;101169.13;4859858;29;20118;-83
2023/06/22 04:10:41;;;;;;;12.25;10.25;;;;;;;19.33;88.23;101180.59;4859848;29;20041;-83
2023/06/22 04:13:08;;;;;;;11.70;9.93;;;;;;;19.35;88.22;101178.75;4863405;29;20053;-83
2023/06/22 04:15:34;;;;;;;11.75;9.35;;;;;;;19.42;87.73;101180.25;4845115;29;20045;-82
2023/06/22 04:18:01;;;;;;;10.05;9.13;;;;;;;19.50;87.35;101187.91;4831017;29;20299;-82
2023/06/22 04:20:27;;;;;;;13.10;11.45;;;;;;;19.54;86.82;101191.34;4862976;29;20084;-82
2023/06/22 04:22:55;;;;;;;11.32;10.32;;;;;;;19.56;86.79;101184.19;4836826;29;20528;-84
2023/06/22 04:25:23;;;;;;;11.15;10.05;;;;;;;19.57;86.27;101178.81;4854659;29;20052;-84
2023/06/22 04:27:49;;;;;;;11.48;10.27;;;;;;;19.57;86.36;101178.81;4848319;29;20053;-84
2023/06/22 04:30:16;;;;;;;14.23;10.48;;;;;;;19.55;86.13;101182.44;4870072;29;20540;-82
2023/06/22 04:32:44;;;;;;;11.57;10.13;;;;;;;19.55;85.97;101178.00;4844132;29;20046;-82
2023/06/22 04:35:11;;;;;;;11.23;10.18;;;;;;;19.58;85.85;101174.34;4851708;29;20045;-83
2023/06/22 04:37:39;;;;;;;12.48;10.82;;;;;;;19.63;85.83;101169.72;4870447;29;20128;-83
2023/06/22 04:40:06;;;;;;;10.98;9.98;;;;;;;19.71;85.57;101174.75;4870551;29;20049;-82
2023/06/22 04:42:36;;;;;;;12.02;10.68;;;;;;;19.80;84.98;101183.25;4847896;29;20049;-82
2023/06/22 04:45:03;;;;;;;11.90;10.68;;;;;;;19.89;84.37;101179.38;4857650;29;20101;-83
2023/06/22 04:47:29;;;;;;;13.77;10.38;;;;;;;20.03;83.83;101180.63;4849439;29;21290;-83
2023/06/22 04:49:56;;;;;;;11.15;9.68;;;;;;;20.14;83.26;101187.25;4847092;29;20053;-82
2023/06/22 04:52:24;;;;;;;12.20;10.45;;;;;;;20.20;82.74;101191.44;4848035;29;20054;-82
2023/06/22 04:54:55;;;;;;;10.50;9.32;;;;;;;20.31;82.34;101183.00;4851886;29;20080;-83
2023/06/22 04:57:32;;;;;;;12.32;11.13;;;;;;;20.30;81.85;101184.81;4855697;29;20109;-82
2023/06/22 05:00:12;;;;;;;11.13;10.02;;;;;;;20.18;82.29;101174.69;4854705;29;20112;-84
2023/06/22 05:02:41;;;;;;;10.23;9.20;;;;;;;20.10;82.74;101182.09;4859136;29;20149;-83
2023/06/22 05:05:13;;;;;;;11.70;10.50;;;;;;;20.07;82.84;101179.56;4847254;29;20129;-84
2023/06/22 05:07:43;;;;;;;11.32;9.63;;;;;;;20.10;82.91;101175.00;4851153;29;20057;-84
2023/06/22 05:10:12;;;;;;;12.65;11.10;;;;;;;20.17;82.44;101173.81;4882335;29;20053;-82
2023/06/22 05:12:40;;;;;;;11.25;10.05;;;;;;;20.28;82.05;101169.84;4862793;29;20041;-83
2023/06/22 05:15:10;;;;;;;12.77;9.77;;;;;;;20.38;81.50;101165.88;4867479;29;20054;-84
2023/06/22 05:17:42;;;;;;;9.65;8.68;;;;;;;20.53;80.88;101164.34;4868535;29;20049;-82
2023/06/22 05:20:11;;;;;;;12.40;9.43;;;;;;;20.69;80.20;101161.03;4863730;29;20069;-82
2023/06/22 05:22:37;;;;;;;13.93;11.40;;;;;;;20.79;79.43;101162.41;4863707;29;20052;-82
2023/06/22 05:25:04;;;;;;;15.02;10.93;;;;;;;20.94;79.13;101163.53;4868364;29;20053;-83
2023/06/22 05:27:30;;;;;;;11.45;9.52;;;;;;;21.01;78.22;101154.34;4875541;29;20049;-84
2023/06/22 05:29:57;;;;;;;13.15;10.88;;;;;;;21.04;78.34;101154.22;4861716;29;20072;-82
2023/06/22 05:32:23;;;;;;;14.88;10.45;;;;;;;21.10;77.99;101161.06;4849523;29;20050;-83
2023/06/22 05:34:50;;;;;;;15.60;9.52;;;;;;;21.18;77.55;101161.56;4867995;29;20053;-83
2023/06/22 05:37:17;;;;;;;10.02;9.05;;;;;;;21.23;77.52;101156.91;4870489;29;20042;-83
2023/06/22 05:39:43;;;;;;;14.15;10.63;;;;;;;21.23;76.89;101159.56;4846579;29;20455;-83
2023/06/22 05:42:10;;;;;;;9.20;8.27;;;;;;;21.28;77.03;101164.69;4859001;29;20049;-81
2023/06/22 05:44:37;;;;;;;13.35;9.48;;;;;;;21.33;76.33;101165.34;4845846;29;20053;-83
2023/06/22 05:47:04;;;;;;;12.45;10.32;;;;;;;21.36;76.22;101161.66;4859862;29;20066;-82
2023/06/22 05:49:32;;;;;;;12.95;9.60;;;;;;;21.44;75.74;101157.69;4842661;29;20148;-83
2023/06/22 05:52:00;;;;;;;11.38;9.32;;;;;;;21.55;75.16;101165.25;4860238;29;20121;-83
2023/06/22 05:54:31;;;;;;;11.82;10.07;;;;;;;21.66;74.56;101163.88;4856525;29;20049;-82
2023/06/22 05:56:58;;;;;;;10.80;8.27;;;;;;;21.69;74.09;101163.72;4866637;29;20053;-81
2023/06/22 05:59:25;;;;;;;11.02;8.48;;;;;;;21.71;73.86;101161.84;4859622;29;20569;-83
2023/06/22 06:01:52;;;;;;;10.15;7.00;;;;;;;21.71;73.57;101149.38;4861777;29;20513;-82
2023/06/22 06:04:19;;;;;;;13.05;8.82;;;;;;;21.67;73.67;101157.56;4850968;29;20370;-83
2023/06/22 06:06:47;;;;;;;9.68;8.40;;;;;;;21.66;73.56;101151.41;4867487;29;20049;-83
2023/06/22 06:09:15;;;;;;;12.10;7.90;;;;;;;21.68;73.04;101157.53;4867848;29;20049;-83
2023/06/22 06:11:42;;;;;;;13.38;8.93;;;;;;;21.65;72.97;101160.31;4845537;29;20056;-82
2023/06/22 06:14:08;;;;;;;8.98;7.85;;;;;;;21.74;73.01;101164.34;4859987;29;20106;-82
2023/06/22 06:16:35;;;;;;;9.23;6.50;;;;;;;21.83;72.06;101158.59;4861199;29;20628;-82
2023/06/22 06:19:01;;;;;;;9.35;7.60;;;;;;;21.94;71.88;101158.06;4871299;29;20042;-84
2023/06/22 06:21:28;;;;;;;10.27;7.65;;;;;;;22.12;70.98;101159.84;4860125;29;20052;-82
2023/06/22 06:23:54;;;;;;;13.93;8.27;;;;;;;22.26;69.92;101150.28;4851524;29;20137;-82
2023/06/22 06:26:29;;;;;;;8.30;7.47;;;;;;;22.35;68.11;101151.63;4884061;29;20052;-83
2023/06/22 06:28:57;;;;;;;9.52;7.88;;;;;;;22.42;68.23;101150.41;4866584;29;20158;-82
2023/06/22 06:31:24;;;;;;;9.73;6.70;;;;;;;22.47;68.03;101140.34;4852047;29;20053;-82
2023/06/22 06:33:51;;;;;;;9.23;6.40;;;;;;;22.51;67.35;101133.06;4842768;29;20053;-83
2023/06/22 06:36:18;;;;;;;10.82;7.03;;;;;;;22.56;66.87;101128.34;4865154;29;20041;-80
2023/06/22 06:38:46;;;;;;;6.78;6.18;;;;;;;22.56;66.13;101137.22;4865798;29;20045;-82
2023/06/22 06:41:17;;;;;;;10.52;6.35;;;;;;;22.60;65.62;101136.09;4865595;29;20049;-84
2023/06/22 06:43:43;;;;;;;9.27;6.13;;;;;;;22.64;65.69;101136.81;4852917;29;20140;-81
2023/06/22 06:46:14;;;;;;;6.78;6.18;;;;;;;22.68;65.49;101122.34;4862389;29;20041;-83
2023/06/22 06:48:40;;;;;;;6.55;5.82;;;;;;;22.75;65.26;101121.09;4852495;29;20041;-85
2023/06/22 06:51:09;;;;;;;10.52;6.30;;;;;;;22.82;64.71;101124.31;4849458;29;20046;-84
2023/06/22 06:53:37;;;;;;;11.00;7.47;;;;;;;22.90;64.39;101123.91;4854033;29;20041;-85
2023/06/22 06:56:05;;;;;;;10.50;6.43;;;;;;;23.05;64.24;101123.09;4846882;29;20398;-85
2023/06/22 06:58:32;;;;;;;7.80;6.10;;;;;;;23.21;63.95;101131.16;4853558;29;20069;-83
2023/06/22 07:00:58;;;;;;;7.43;6.20;;;;;;;23.29;62.63;101128.91;4847876;29;20143;-84
2023/06/22 07:03:25;;;;;;;10.30;6.25;;;;;;;23.36;62.57;101125.91;4860309;29;20789;-84
2023/06/22 07:05:52;;;;;;;8.30;5.90;;;;;;;23.54;62.18;101132.03;4844774;29;20168;-85
2023/06/22 07:08:18;;;;;;;6.70;5.93;;;;;;;23.69;61.36;101131.19;4857789;29;20428;-84
2023/06/22 07:10:45;;;;;;;10.18;5.97;;;;;;;23.76;61.13;101135.22;4861321;29;20052;-84
2023/06/22 07:13:11;;;;;;;6.07;5.40;;;;;;;23.86;60.88;101132.03;4846727;29;20038;-82
2023/06/22 07:15:39;;;;;;;6.20;5.70;;;;;;;23.90;61.05;101136.28;4844977;29;20045;-82
2023/06/22 07:18:05;;;;;;;8.13;5.35;;;;;;;24.07;59.37;101138.00;4846585;29;20469;-85
2023/06/22 07:20:32;;;;;;;6.38;5.22;;;;;;;24.15;59.77;101129.53;4863064;29;20102;-85
2023/06/22 07:22:59;;;;;;;6.50;5.18;;;;;;;24.20;59.45;101139.00;4846179;29;20042;-85
2023/06/22 07:25:25;;;;;;;6.80;4.95;;;;;;;24.45;58.86;101141.06;4862436;29;20108;-86
2023/06/22 07:28:02;;;;;;;6.10;5.25;;;;;;;24.83;57.06;101136.19;4847319;29;20060;-84
2023/06/22 07:30:29;;;;;;;6.75;5.78;;;;;;;24.95;56.15;101132.75;4852887;29;20083;-84
2023/06/22 07:32:57;;;;;;;8.23;6.40;;;;;;;25.03;55.98;101129.59;4847773;29;20049;-85
2023/06/22 07:35:24;;;;;;;6.25;5.60;;;;;;;25.45;55.55;101119.84;4848587;29;20038;-84
2023/06/22 07:37:50;;;;;;;6.43;5.78;;;;;;;26.00;53.92;101112.66;4881849;29;20061;-86
2023/06/22 07:40:17;;;;;;;6.47;5.88;;;;;;;26.58;51.77;101113.25;4859689;29;20486;-84
2023/06/22 07:42:43;;;;;;;5.75;5.00;;;;;;;27.01;51.29;101109.41;4862771;29;20037;-84
2023/06/22 07:45:10;;;;;;;6.20;5.60;;;;;;;27.43;48.75;101114.50;4868877;29;20056;-85
2023/06/22 07:47:38;;;;;;;8.40;6.65;;;;;;;27.77;48.47;101117.38;4843645;29;20078;-85
2023/06/22 07:50:06;;;;;;;7.03;6.03;;;;;;;28.05;46.69;101124.25;4849849;29;20049;-83
2023/06/22 07:52:33;;;;;;;8.57;6.40;;;;;;;28.17;46.12;101129.69;4841378;29;20786;-85
2023/06/22 07:54:59;;;;;;;6.90;6.28;;;;;;;27.72;47.81;101112.31;4862254;29;20870;-85
2023/06/22 07:57:33;;;;;;;6.65;5.97;;;;;;;27.19;48.65;101126.00;4864488;29;20045;-85
2023/06/22 08:00:00;;;;;;;6.25;5.70;;;;;;;26.60;50.48;101117.66;4860720;29;20057;-84
2023/06/22 08:02:27;;;;;;;7.22;6.47;;;;;;;26.23;50.82;101115.63;4845915;29;20049;-84
2023/06/22 08:04:54;;;;;;;6.68;6.03;;;;;;;25.81;52.16;101120.22;4862907;29;20120;-85
2023/06/22 08:07:21;;;;;;;6.45;5.85;;;;;;;25.49;53.28;101112.44;4846359;29;20059;-84
2023/06/22 08:09:49;;;;;;;6.85;6.15;;;;;;;25.47;53.40;101115.22;4852985;29;20072;-84
2023/06/22 08:12:17;;;;;;;6.22;5.63;;;;;;;25.50;53.64;101116.84;4853156;29;20113;-83
2023/06/22 08:14:44;;;;;;;6.57;5.97;;;;;;;25.45;53.93;101122.53;4863828;29;20049;-82
2023/06/22 08:17:11;;;;;;;7.88;6.90;;;;;;;25.65;53.46;101128.41;4864954;29;20056;-86
2023/06/22 08:19:39;;;;;;;6.20;5.57;;;;;;;25.74;52.93;101131.34;4841784;29;20145;-84
2023/06/22 08:22:06;;;;;;;7.53;6.45;;;;;;;25.83;52.76;101131.72;4855939;29;20804;-83
2023/06/22 08:24:33;;;;;;;8.75;7.55;;;;;;;25.92;52.83;101137.31;4840926;29;20052;-83
2023/06/22 08:26:59;;;;;;;7.07;5.95;;;;;;;26.02;52.42;101126.84;4844523;29;20050;-85
2023/06/22 08:29:26;;;;;;;6.43;5.78;;;;;;;25.92;52.76;101133.78;4834596;29;20458;-84
2023/06/22 08:31:53;;;;;;;7.47;6.65;;;;;;;25.64;53.48;101124.84;4836965;29;20099;-84
2023/06/22 08:34:21;;;;;;;7.63;6.93;;;;;;;25.66;54.00;101133.66;4852792;29;20056;-83
2023/06/22 08:36:52;;;;;;;6.72;6.00;;;;;;;25.66;54.01;101127.47;4838855;29;20569;-85
2023/06/22 08:39:20;;;;;;;8.48;6.22;;;;;;;25.66;54.33;101138.19;4839251;29;20107;-83
2023/06/22 08:41:48;;;;;;;6.85;6.32;;;;;;;25.79;54.09;101140.91;4836636;29;20756;-83
2023/06/22 08:44:19;;;;;;;7.13;6.53;;;;;;;25.86;53.86;101135.03;4826370;29;20075;-84
2023/06/22 08:46:47;;;;;;;8.18;7.20;;;;;;;25.88;54.19;101140.31;4848369;29;20046;-84
2023/06/22 08:49:15;;;;;;;7.32;6.57;;;;;;;25.93;54.03;101130.16;4830263;29;20830;-84
2023/06/22 08:51:44;;;;;;;8.07;7.35;;;;;;;25.94;54.00;101121.13;4840058;29;20050;-84
2023/06/22 08:54:10;;;;;;;7.10;6.45;;;;;;;25.90;54.31;101115.13;4833363;29;20054;-84
2023/06/22 08:56:37;;;;;;;9.40;6.03;;;;;;;26.16;53.66;101115.19;4832312;29;20051;-84
2023/06/22 08:59:04;;;;;;;8.30;7.53;;;;;;;26.31;52.86;101116.00;4840591;29;20050;-84
2023/06/22 09:01:30;;;;;;;8.88;6.97;;;;;;;26.33;52.79;101123.94;4854601;29;20059;-85
2023/06/22 09:03:59;;;;;;;9.88;7.43;;;;;;;26.44;52.51;101121.38;4858198;29;20079;-85
2023/06/22 09:06:27;;;;;;;8.75;6.25;;;;;;;26.47;52.82;101115.78;4841429;29;20054;-83
2023/06/22 09:08:53;;;;;;;7.75;6.35;;;;;;;26.67;52.47;101116.25;4826501;29;20053;-85
2023/06/22 09:11:20;;;;;;;6.50;6.00;;;;;;;26.86;51.64;101116.69;4840922;29;20153;-84
2023/06/22 09:13:47;;;;;;;9.18;7.07;;;;;;;26.80;51.63;101103.69;4825456;29;20077;-85
2023/06/22 09:16:13;;;;;;;9.32;6.90;;;;;;;26.70;51.67;101092.72;4836438;29;20416;-84
2023/06/22 09:18:41;;;;;;;7.47;6.82;;;;;;;26.89;51.27;101084.22;4829104;29;20053;-83
2023/06/22 09:21:07;;;;;;;8.23;7.43;;;;;;;27.08;50.75;101091.84;4870728;29;20501;-84
2023/06/22 09:23:34;;;;;;;8.85;8.00;;;;;;;27.56;49.46;101077.66;4845438;29;20038;-83
2023/06/22 09:26:00;;;;;;;9.00;7.25;;;;;;;27.68;49.22;101081.25;4846331;29;20049;-84
2023/06/22 09:28:27;;;;;;;10.98;8.02;;;;;;;27.75;48.75;101075.44;4857954;29;20045;-85
2023/06/22 09:30:57;;;;;;;8.90;7.97;;;;;;;27.53;49.47;101085.09;4850689;29;20056;-84
2023/06/22 09:33:28;;;;;;;9.35;8.02;;;;;;;27.24;50.07;101077.31;4865965;29;20057;-85
2023/06/22 09:35:56;;;;;;;6.82;6.18;;;;;;;27.12;50.82;101073.69;4852324;29;20084;-85
2023/06/22 09:38:22;;;;;;;8.05;7.35;;;;;;;27.08;50.72;101069.50;4865023;29;20425;-87
2023/06/22 09:40:49;;;;;;;8.85;7.95;;;;;;;27.04;50.83;101062.63;4884094;29;20512;-83
2023/06/22 09:43:15;;;;;;;9.23;8.43;;;;;;;27.04;50.69;101068.00;4856168;29;20049;-84
2023/06/22 09:45:42;;;;;;;13.65;9.55;;;;;;;26.86;51.15;101075.56;4862490;29;20045;-86
2023/06/22 09:48:10;;;;;;;9.77;8.77;;;;;;;26.92;50.93;101080.47;4869174;29;20049;-83
2023/06/22 09:50:37;;;;;;;10.15;8.52;;;;;;;27.00;51.15;101082.59;4865458;29;20145;-86
2023/06/22 09:53:07;;;;;;;12.65;8.77;;;;;;;27.16;50.64;101090.44;4837494;29;20049;-85
2023/06/22 09:55:34;;;;;;;9.32;8.50;;;;;;;27.28;50.50;101083.31;4866944;29;20057;-84
2023/06/22 09:58:02;;;;;;;10.32;9.32;;;;;;;27.55;49.93;101077.78;4876782;29;20136;-84
2023/06/22 10:00:29;;;;;;;11.95;10.38;;;;;;;27.71;49.72;101066.72;4863405;29;20129;-84
2023/06/22 10:02:57;;;;;;;12.02;9.43;;;;;;;27.58;49.94;101069.47;4844710;29;20065;-83
2023/06/22 10:05:24;;;;;;;10.68;9.63;;;;;;;27.30;50.79;101065.22;4870257;29;20583;-83
2023/06/22 10:07:51;;;;;;;12.45;10.70;;;;;;;27.21;51.01;101064.94;4847531;29;20058;-83
2023/06/22 10:10:17;;;;;;;11.40;10.10;;;;;;;27.18;51.33;101067.00;4849594;29;20452;-84
2023/06/22 10:12:48;;;;;;;14.50;9.30;;;;;;;27.36;51.18;101062.09;4853738;29;20044;-85
2023/06/22 10:15:16;;;;;;;13.60;10.77;;;;;;;27.28;51.31;101065.34;4872176;29;20130;-86
2023/06/22 10:17:43;;;;;;;11.40;10.40;;;;;;;27.10;51.92;101059.47;4850127;29;20117;-85
2023/06/22 10:20:12;;;;;;;11.77;10.55;;;;;;;27.01;52.28;101069.09;4859129;29;20054;-85
2023/06/22 10:22:46;;;;;;;11.68;10.57;;;;;;;26.81;53.41;101061.59;4866499;29;20093;-84
2023/06/22 10:25:13;;;;;;;12.60;11.30;;;;;;;26.67;53.67;101058.00;4847769;29;20136;-83
2023/06/22 10:27:40;;;;;;;13.80;12.32;;;;;;;26.64;53.89;101049.34;4867252;29;20139;-84
2023/06/22 10:30:10;;;;;;;15.35;12.85;;;;;;;26.45;54.55;101036.34;4868979;29;20047;-85
2023/06/22 10:32:39;;;;;;;13.35;10.90;;;;;;;26.57;54.24;101035.50;4862709;29;20420;-85
2023/06/22 10:35:07;;;;;;;13.32;11.93;;;;;;;26.93;53.17;101041.06;4865304;29;20040;-84
2023/06/22 10:37:34;;;;;;;13.15;11.32;;;;;;;27.19;52.54;101036.47;4863379;29;20795;-84
2023/06/22 10:40:01;;;;;;;12.23;11.02;;;;;;;27.25;52.34;101030.66;4861943;29;20048;-86
2023/06/22 10:42:27;;;;;;;12.25;11.00;;;;;;;27.26;52.77;101032.38;4854628;29;20045;-85
2023/06/22 10:44:54;;;;;;;16.17;10.50;;;;;;;27.49;52.28;101029.81;4853974;29;20045;-84
2023/06/22 10:47:21;;;;;;;14.32;11.95;;;;;;;27.62;52.06;101038.69;4863968;29;20106;-85
2023/06/22 10:49:47;;;;;;;13.23;11.43;;;;;;;27.46;52.39;101030.91;4858533;29;20046;-85
2023/06/22 10:52:14;;;;;;;11.50;10.30;;;;;;;27.46;52.44;101025.53;4832818;29;20140;-85
2023/06/22 10:54:42;;;;;;;12.48;11.18;;;;;;;27.40;52.13;101040.31;4845521;29;20049;-85
2023/06/22 10:57:09;;;;;;;10.77;9.68;;;;;;;27.48;52.21;101025.41;4851596;29;20117;-86
2023/06/22 10:59:35;;;;;;;11.48;10.38;;;;;;;27.49;52.13;101027.97;4859936;29;20059;-85
2023/06/22 11:02:02;;;;;;;12.05;10.93;;;;;;;27.51;52.18;101020.66;4862911;29;20061;-85
2023/06/22 11:04:29;;;;;;;11.77;10.50;;;;;;;27.50;51.85;101018.09;4850456;29;20450;-83
2023/06/22 11:06:57;;;;;;;10.80;9.70;;;;;;;27.62;52.27;101009.09;4861182;29;20109;-84
2023/06/22 11:09:23;;;;;;;12.48;11.18;;;;;;;27.78;51.77;101011.47;4864568;29;20508;-85
2023/06/22 11:11:53;;;;;;;9.55;8.70;;;;;;;27.83;51.21;101006.59;4852366;29;21443;-85
2023/06/22 11:14:20;;;;;;;12.98;11.68;;;;;;;27.97;51.33;101005.56;4849297;29;20048;-84
2023/06/22 11:16:47;;;;;;;13.25;10.88;;;;;;;28.00;51.32;101010.72;4847343;29;20052;-84
2023/06/22 11:19:14;;;;;;;11.43;10.43;;;;;;;27.87;51.38;101013.50;4861002;29;20137;-83
2023/06/22 11:21:40;;;;;;;10.88;9.95;;;;;;;27.81;51.70;101005.00;4850475;29;20084;-85
2023/06/22 11:24:07;;;;;;;11.45;10.40;;;;;;;27.65;52.01;101002.63;4847788;29;20041;-84
2023/06/22 11:26:37;;;;;;;11.98;10.60;;;;;;;27.44;52.84;101003.28;4863052;29;20045;-84
2023/06/22 11:29:05;;;;;;;10.60;9.75;;;;;;;27.38;53.13;101003.75;4863713;29;20079;-84
2023/06/22 11:31:33;;;;;;;11.15;9.73;;;;;;;27.34;52.67;100997.72;4847279;29;20048;-84
2023/06/22 11:33:59;;;;;;;12.27;11.05;;;;;;;27.31;53.02;100997.06;4868674;29;20501;-83
2023/06/22 11:36:29;;;;;;;12.07;10.95;;;;;;;27.41;53.08;101000.81;4860412;29;20060;-83